createdAt,value
2022-12-22T00:00:45.743Z,100909.17
2022-12-22T00:01:49.978Z,100909.17
2022-12-22T00:02:47.583Z,100908.78
2022-12-22T00:03:48.038Z,100908.95
2022-12-22T00:04:48.528Z,100909.68
2022-12-22T00:05:49.114Z,100909.68
2022-12-22T00:06:49.671Z,100909.68
2022-12-22T00:07:50.381Z,100910.27
2022-12-22T00:08:51.109Z,100910.52
2022-12-22T00:09:51.981Z,100910.19
2022-12-22T00:10:52.516Z,100910.23
2022-12-22T00:11:52.867Z,100909.81
2022-12-22T00:12:53.444Z,100909.69
2022-12-22T00:13:53.843Z,100909.27
2022-12-22T00:14:54.368Z,100908.59
2022-12-22T00:15:55.284Z,100908.09
2022-12-22T00:16:55.959Z,100907.16
2022-12-22T00:17:56.162Z,100906.83
2022-12-22T00:18:56.908Z,100906.09
2022-12-22T00:19:57.368Z,100905.42
2022-12-22T00:20:57.810Z,100904.33
2022-12-22T00:21:58.212Z,100903.41
2022-12-22T00:22:58.702Z,100902.48
2022-12-22T00:23:59.114Z,100901.77
2022-12-22T00:24:59.162Z,100900.67
2022-12-22T00:25:14.426Z,100885.97
2022-12-22T00:26:14.843Z,100886.06
2022-12-22T00:27:15.247Z,100886.06
2022-12-22T00:28:15.872Z,100885.55
2022-12-22T00:29:16.337Z,100885.22
2022-12-22T00:30:16.864Z,100884.63
2022-12-22T00:31:17.674Z,100883.44
2022-12-22T00:32:18.006Z,100882.77
2022-12-22T00:33:18.506Z,100881.51
2022-12-22T00:34:19.197Z,100880.78
2022-12-22T00:35:19.891Z,100879.86
2022-12-22T00:36:20.326Z,100878.93
2022-12-22T00:37:20.845Z,100878.77
2022-12-22T00:38:21.222Z,100878.34
2022-12-22T00:39:21.745Z,100877.45
2022-12-22T00:40:22.077Z,100876.61
2022-12-22T00:41:22.913Z,100875.38
2022-12-22T00:42:23.120Z,100874.96
2022-12-22T00:43:23.946Z,100874.37
2022-12-22T00:44:24.380Z,100873.56
2022-12-22T00:45:24.790Z,100872.55
2022-12-22T00:46:25.420Z,100872.30
2022-12-22T00:47:25.918Z,100871.45
2022-12-22T00:48:26.192Z,100870.95
2022-12-22T00:49:26.631Z,100869.44
2022-12-22T00:50:27.105Z,100868.81
2022-12-22T00:51:27.699Z,100868.22
2022-12-22T00:52:28.033Z,100867.63
2022-12-22T00:53:28.684Z,100866.92
2022-12-22T00:54:29.205Z,100866.12
2022-12-22T00:55:29.816Z,100865.03
2022-12-22T00:55:45.494Z,100843.26
2022-12-22T00:56:45.753Z,100843.84
2022-12-22T00:57:46.413Z,100844.16
2022-12-22T00:58:47.002Z,100843.89
2022-12-22T00:59:47.991Z,100843.27
2022-12-22T01:00:48.646Z,100842.55
2022-12-22T01:01:49.089Z,100841.03
2022-12-22T01:02:49.123Z,100839.14
2022-12-22T01:03:49.570Z,100838.34
2022-12-22T01:04:49.838Z,100836.83
2022-12-22T01:05:50.524Z,100835.35
2022-12-22T01:06:51.025Z,100833.80
2022-12-22T01:07:51.430Z,100831.77
2022-12-22T01:08:51.848Z,100829.71
2022-12-22T01:09:52.390Z,100828.36
2022-12-22T01:10:52.829Z,100826.75
2022-12-22T01:11:53.380Z,100824.90
2022-12-22T01:12:54.037Z,100823.59
2022-12-22T01:13:54.515Z,100821.91
2022-12-22T01:14:55.010Z,100820.23
2022-12-22T01:15:55.737Z,100818.88
2022-12-22T01:16:56.183Z,100817.53
2022-12-22T01:17:56.648Z,100816.52
2022-12-22T01:18:57.169Z,100815.84
2022-12-22T01:19:57.610Z,100814.27
2022-12-22T01:20:58.000Z,100813.77
2022-12-22T01:21:58.459Z,100812.42
2022-12-22T01:22:58.839Z,100811.83
2022-12-22T01:23:59.359Z,100811.36
2022-12-22T01:24:59.634Z,100810.86
2022-12-22T01:26:00.037Z,100810.81
2022-12-22T01:26:43.327Z,100812.09
2022-12-22T01:27:43.932Z,100811.68
2022-12-22T01:28:44.482Z,100811.34
2022-12-22T01:29:44.983Z,100811.34
2022-12-22T01:30:45.406Z,100811.34
2022-12-22T01:31:45.806Z,100811.84
2022-12-22T01:32:46.321Z,100812.10
2022-12-22T01:33:46.860Z,100812.19
2022-12-22T01:34:47.486Z,100812.19
2022-12-22T01:35:47.931Z,100812.86
2022-12-22T01:36:48.412Z,100813.83
2022-12-22T01:37:48.983Z,100814.41
2022-12-22T01:38:49.353Z,100815.77
2022-12-22T01:39:50.041Z,100817.03
2022-12-22T01:40:50.493Z,100817.75
2022-12-22T01:41:50.903Z,100818.77
2022-12-22T01:42:51.480Z,100819.69
2022-12-22T01:43:52.281Z,100820.11
2022-12-22T01:44:52.877Z,100820.45
2022-12-22T01:45:53.873Z,100821.38
2022-12-22T01:46:54.426Z,100821.75
2022-12-22T01:47:54.741Z,100822.59
2022-12-22T01:48:55.225Z,100823.11
2022-12-22T01:49:56.042Z,100823.47
2022-12-22T01:50:56.475Z,100824.66
2022-12-22T01:51:56.842Z,100825.54
2022-12-22T01:52:57.372Z,100826.39
2022-12-22T01:53:57.814Z,100827.09
2022-12-22T01:54:57.889Z,100828.11
2022-12-22T01:55:58.326Z,100828.66
2022-12-22T01:56:58.719Z,100829.11
2022-12-22T01:57:13.922Z,100847.03
2022-12-22T01:58:14.326Z,100846.64
2022-12-22T01:59:14.894Z,100845.80
2022-12-22T02:00:15.338Z,100844.53
2022-12-22T02:01:16.128Z,100844.28
2022-12-22T02:02:16.983Z,100843.70
2022-12-22T02:03:17.658Z,100843.31
2022-12-22T02:04:18.370Z,100843.14
2022-12-22T02:05:18.889Z,100843.05
2022-12-22T02:06:19.728Z,100842.75
2022-12-22T02:07:20.285Z,100842.67
2022-12-22T02:08:20.968Z,100842.17
2022-12-22T02:09:21.816Z,100842.20
2022-12-22T02:10:22.454Z,100842.20
2022-12-22T02:11:22.777Z,100842.33
2022-12-22T02:12:23.392Z,100842.78
2022-12-22T02:13:24.071Z,100842.57
2022-12-22T02:14:29.678Z,100842.69
2022-12-22T02:15:25.205Z,100843.06
2022-12-22T02:16:25.584Z,100843.36
2022-12-22T02:17:25.990Z,100843.82
2022-12-22T02:18:26.472Z,100844.70
2022-12-22T02:19:26.911Z,100844.19
2022-12-22T02:20:27.471Z,100844.30
2022-12-22T02:21:28.023Z,100844.21
2022-12-22T02:22:28.427Z,100843.66
2022-12-22T02:23:28.940Z,100843.70
2022-12-22T02:24:29.552Z,100843.56
2022-12-22T02:25:30.106Z,100843.77
2022-12-22T02:26:30.746Z,100843.81
2022-12-22T02:26:51.940Z,100844.52
2022-12-22T02:27:52.515Z,100845.10
2022-12-22T02:28:53.051Z,100844.94
2022-12-22T02:29:53.777Z,100844.21
2022-12-22T02:30:54.244Z,100843.79
2022-12-22T02:31:54.723Z,100842.95
2022-12-22T02:32:55.404Z,100841.86
2022-12-22T02:33:56.229Z,100841.27
2022-12-22T02:34:56.816Z,100840.37
2022-12-22T02:35:57.080Z,100839.45
2022-12-22T02:36:57.976Z,100838.27
2022-12-22T02:37:58.595Z,100837.77
2022-12-22T02:38:59.270Z,100836.70
2022-12-22T02:39:59.613Z,100836.11
2022-12-22T02:41:00.443Z,100835.19
2022-12-22T02:42:00.937Z,100834.52
2022-12-22T02:43:01.555Z,100833.28
2022-12-22T02:44:02.292Z,100832.70
2022-12-22T02:45:02.841Z,100831.77
2022-12-22T02:46:03.448Z,100831.27
2022-12-22T02:47:04.091Z,100830.00
2022-12-22T02:48:04.493Z,100829.61
2022-12-22T02:49:05.296Z,100828.86
2022-12-22T02:50:06.096Z,100828.86
2022-12-22T02:51:06.394Z,100828.09
2022-12-22T02:52:06.941Z,100827.68
2022-12-22T02:53:07.055Z,100827.52
2022-12-22T02:54:07.657Z,100826.53
2022-12-22T02:55:08.281Z,100826.11
2022-12-22T02:56:08.885Z,100825.78
2022-12-22T02:57:09.543Z,100825.27
2022-12-22T02:58:09.611Z,100824.59
2022-12-22T02:58:20.816Z,100823.80
2022-12-22T02:59:21.527Z,100823.89
2022-12-22T03:00:22.177Z,100823.38
2022-12-22T03:01:22.495Z,100822.63
2022-12-22T03:02:23.521Z,100821.31
2022-12-22T03:03:24.133Z,100820.55
2022-12-22T03:04:24.691Z,100819.41
2022-12-22T03:05:25.341Z,100818.82
2022-12-22T03:06:25.693Z,100817.89
2022-12-22T03:08:32.828Z,100801.45
2022-12-22T03:09:33.409Z,100803.08
2022-12-22T03:10:34.000Z,100803.08
2022-12-22T03:11:34.554Z,100803.08
2022-12-22T03:12:35.317Z,100802.66
2022-12-22T03:13:35.781Z,100802.83
2022-12-22T03:14:36.331Z,100802.75
2022-12-22T03:15:36.823Z,100802.91
2022-12-22T03:16:37.328Z,100802.80
2022-12-22T03:17:37.713Z,100803.39
2022-12-22T03:18:38.072Z,100804.22
2022-12-22T03:19:38.506Z,100804.70
2022-12-22T03:20:38.960Z,100805.17
2022-12-22T03:21:39.284Z,100805.16
2022-12-22T03:22:39.784Z,100804.80
2022-12-22T03:23:40.233Z,100805.21
2022-12-22T03:24:41.103Z,100804.84
2022-12-22T03:25:41.502Z,100804.05
2022-12-22T03:26:41.928Z,100803.80
2022-12-22T03:27:42.345Z,100803.39
2022-12-22T03:28:42.829Z,100802.93
2022-12-22T03:29:43.499Z,100802.64
2022-12-22T03:30:44.074Z,100801.92
2022-12-22T03:31:44.451Z,100801.39
2022-12-22T03:32:44.701Z,100800.39
2022-12-22T03:33:45.301Z,100799.51
2022-12-22T03:34:45.821Z,100798.71
2022-12-22T03:35:46.289Z,100797.83
2022-12-22T03:36:46.649Z,100796.78
2022-12-22T03:37:47.088Z,100795.52
2022-12-22T03:38:04.290Z,100785.20
2022-12-22T03:39:04.781Z,100785.63
2022-12-22T03:40:05.606Z,100785.11
2022-12-22T03:41:06.180Z,100783.34
2022-12-22T03:42:06.534Z,100782.08
2022-12-22T03:43:07.025Z,100781.75
2022-12-22T03:44:07.434Z,100780.56
2022-12-22T03:45:07.944Z,100779.50
2022-12-22T03:46:08.339Z,100778.55
2022-12-22T03:47:09.032Z,100777.28
2022-12-22T03:48:09.536Z,100775.76
2022-12-22T03:49:09.894Z,100775.25
2022-12-22T03:50:10.577Z,100773.91
2022-12-22T03:51:10.953Z,100773.19
2022-12-22T03:52:11.318Z,100771.84
2022-12-22T03:53:12.267Z,100770.62
2022-12-22T03:54:12.639Z,100769.45
2022-12-22T03:55:13.553Z,100768.18
2022-12-22T03:56:14.290Z,100767.30
2022-12-22T03:57:14.746Z,100765.19
2022-12-22T03:58:15.553Z,100763.63
2022-12-22T03:59:16.014Z,100762.75
2022-12-22T04:00:16.909Z,100761.45
2022-12-22T04:01:17.499Z,100760.14
2022-12-22T04:02:18.342Z,100758.42
2022-12-22T04:03:18.796Z,100757.11
2022-12-22T04:04:19.516Z,100755.22
2022-12-22T04:05:20.247Z,100754.22
2022-12-22T04:06:21.064Z,100752.66
2022-12-22T04:07:21.704Z,100750.85
2022-12-22T04:08:22.314Z,100749.30
2022-12-22T04:09:22.595Z,100747.23
2022-12-22T04:10:23.241Z,100745.84
2022-12-22T04:11:06.522Z,100718.08
2022-12-22T04:12:07.123Z,100719.17
2022-12-22T04:13:07.540Z,100719.26
2022-12-22T04:14:07.997Z,100719.14
2022-12-22T04:15:08.367Z,100718.13
2022-12-22T04:16:09.010Z,100717.70
2022-12-22T04:17:09.330Z,100716.86
2022-12-22T04:18:09.558Z,100716.69
2022-12-22T04:19:10.087Z,100715.59
2022-12-22T04:20:10.638Z,100715.26
2022-12-22T04:21:11.319Z,100714.03
2022-12-22T04:22:11.869Z,100714.03
2022-12-22T04:23:12.363Z,100713.44
2022-12-22T04:24:13.248Z,100712.73
2022-12-22T04:25:13.819Z,100712.39
2022-12-22T04:26:14.337Z,100711.84
2022-12-22T04:27:14.863Z,100710.75
2022-12-22T04:28:15.358Z,100710.20
2022-12-22T04:29:16.036Z,100709.28
2022-12-22T04:30:16.796Z,100708.98
2022-12-22T04:31:17.871Z,100708.22
2022-12-22T04:32:18.534Z,100706.91
2022-12-22T04:33:19.344Z,100705.61
2022-12-22T04:34:20.068Z,100704.56
2022-12-22T04:35:20.939Z,100702.87
2022-12-22T04:36:21.640Z,100701.39
2022-12-22T04:37:22.287Z,100699.45
2022-12-22T04:38:22.919Z,100697.89
2022-12-22T04:39:23.691Z,100696.20
2022-12-22T04:40:24.525Z,100694.65
2022-12-22T04:41:25.253Z,100692.53
2022-12-22T04:42:25.774Z,100690.59
2022-12-22T04:42:39.973Z,100674.49
2022-12-22T04:43:40.478Z,100675.34
2022-12-22T04:44:41.193Z,100674.83
2022-12-22T04:45:42.048Z,100674.08
2022-12-22T04:46:42.155Z,100673.48
2022-12-22T04:47:42.599Z,100672.59
2022-12-22T04:48:43.713Z,100671.41
2022-12-22T04:49:44.105Z,100670.91
2022-12-22T04:50:44.631Z,100669.56
2022-12-22T04:51:45.236Z,100668.55
2022-12-22T04:52:45.772Z,100667.53
2022-12-22T04:53:46.311Z,100666.52
2022-12-22T04:54:46.971Z,100665.09
2022-12-22T04:56:53.771Z,100641.47
2022-12-22T04:57:54.379Z,100643.16
2022-12-22T04:58:54.823Z,100643.25
2022-12-22T04:59:55.563Z,100643.25
2022-12-22T05:00:56.579Z,100643.58
2022-12-22T05:01:57.189Z,100643.84
2022-12-22T05:02:58.122Z,100644.59
2022-12-22T05:03:58.493Z,100644.72
2022-12-22T05:04:59.254Z,100644.64
2022-12-22T05:05:59.847Z,100644.97
2022-12-22T05:07:00.380Z,100645.02
2022-12-22T05:08:00.943Z,100645.27
2022-12-22T05:09:01.507Z,100644.84
2022-12-22T05:10:02.113Z,100644.59
2022-12-22T05:11:03.098Z,100644.21
2022-12-22T05:12:03.562Z,100644.55
2022-12-22T05:13:04.240Z,100644.55
2022-12-22T05:14:07.462Z,100644.05
2022-12-22T05:15:05.749Z,100643.80
2022-12-22T05:16:05.871Z,100643.75
2022-12-22T05:17:06.638Z,100643.75
2022-12-22T05:18:07.276Z,100643.58
2022-12-22T05:19:08.022Z,100642.99
2022-12-22T05:20:08.607Z,100642.57
2022-12-22T05:21:09.330Z,100642.95
2022-12-22T05:22:10.171Z,100642.70
2022-12-22T05:23:10.941Z,100642.87
2022-12-22T05:24:11.531Z,100642.06
2022-12-22T05:25:12.340Z,100641.89
2022-12-22T05:26:12.980Z,100641.39
2022-12-22T05:27:13.700Z,100640.72
2022-12-22T05:27:57.017Z,100630.13
2022-12-22T05:28:57.882Z,100631.73
2022-12-22T05:29:58.401Z,100631.73
2022-12-22T05:30:59.046Z,100631.35
2022-12-22T05:31:59.576Z,100631.40
2022-12-22T05:33:00.243Z,100631.02
2022-12-22T05:34:00.760Z,100631.19
2022-12-22T05:35:01.331Z,100631.10
2022-12-22T05:36:01.858Z,100631.19
2022-12-22T05:37:02.542Z,100630.59
2022-12-22T05:38:03.219Z,100630.26
2022-12-22T05:39:03.784Z,100630.17
2022-12-22T05:40:04.290Z,100629.16
2022-12-22T05:41:05.062Z,100628.82
2022-12-22T05:42:05.522Z,100628.48
2022-12-22T05:43:06.259Z,100627.60
2022-12-22T05:44:06.517Z,100627.09
2022-12-22T05:45:07.241Z,100626.80
2022-12-22T05:46:07.950Z,100625.92
2022-12-22T05:47:08.554Z,100625.16
2022-12-22T05:48:09.121Z,100624.23
2022-12-22T05:49:09.829Z,100623.30
2022-12-22T05:50:10.472Z,100622.20
2022-12-22T05:51:11.076Z,100620.89
2022-12-22T05:52:11.547Z,100618.70
2022-12-22T05:53:12.256Z,100616.55
2022-12-22T05:54:12.860Z,100613.97
2022-12-22T05:55:13.805Z,100611.56
2022-12-22T05:56:14.307Z,100608.73
2022-12-22T05:57:14.819Z,100606.20
2022-12-22T05:58:15.268Z,100603.29
2022-12-22T05:59:15.850Z,100600.50
2022-12-22T05:59:31.004Z,100561.21
2022-12-22T06:00:31.783Z,100562.39
2022-12-22T06:01:32.386Z,100561.05
2022-12-22T06:02:33.105Z,100559.39
2022-12-22T06:03:33.499Z,100558.59
2022-12-22T06:04:33.885Z,100557.02
2022-12-22T06:05:34.860Z,100553.73
2022-12-22T06:06:35.539Z,100550.68
2022-12-22T06:07:36.086Z,100547.41
2022-12-22T06:08:36.860Z,100544.70
2022-12-22T06:09:37.622Z,100541.31
2022-12-22T06:10:38.460Z,100538.61
2022-12-22T06:11:39.272Z,100535.67
2022-12-22T06:12:40.000Z,100532.20
2022-12-22T06:13:40.601Z,100529.24
2022-12-22T06:14:41.327Z,100525.65
2022-12-22T06:15:42.303Z,100521.45
2022-12-22T06:16:42.348Z,100517.60
2022-12-22T06:17:45.171Z,100513.38
2022-12-22T06:18:43.399Z,100508.75
2022-12-22T06:19:44.333Z,100505.12
2022-12-22T06:20:45.079Z,100501.27
2022-12-22T06:21:45.803Z,100496.56
2022-12-22T06:22:46.781Z,100492.89
2022-12-22T06:23:47.388Z,100488.78
2022-12-22T06:24:47.496Z,100484.25
2022-12-22T06:25:48.121Z,100480.78
2022-12-22T06:26:48.790Z,100476.76
2022-12-22T06:27:49.499Z,100472.36
2022-12-22T06:28:01.165Z,100401.14
2022-12-22T06:29:44.219Z,100389.28
2022-12-22T06:30:44.943Z,100390.41
2022-12-22T06:31:45.856Z,100391.09
2022-12-22T06:32:46.449Z,100390.25
2022-12-22T06:33:47.007Z,100390.08
2022-12-22T06:34:47.645Z,100390.25
2022-12-22T06:35:52.379Z,100389.73
2022-12-22T06:36:49.280Z,100388.55
2022-12-22T06:37:49.971Z,100387.42
2022-12-22T06:38:50.808Z,100387.33
2022-12-22T06:39:51.536Z,100386.41
2022-12-22T06:40:52.190Z,100385.13
2022-12-22T06:41:52.754Z,100383.78
2022-12-22T06:42:53.703Z,100382.77
2022-12-22T06:43:53.833Z,100381.67
2022-12-22T06:44:54.325Z,100379.94
2022-12-22T06:45:55.023Z,100378.41
2022-12-22T06:46:55.654Z,100377.56
2022-12-22T06:47:56.480Z,100376.64
2022-12-22T06:48:57.192Z,100375.25
2022-12-22T06:49:58.129Z,100374.33
2022-12-22T06:50:58.863Z,100373.69
2022-12-22T06:51:59.523Z,100372.35
2022-12-22T06:53:00.012Z,100371.64
2022-12-22T06:54:00.637Z,100371.14
2022-12-22T06:55:01.576Z,100370.77
2022-12-22T06:56:02.203Z,100370.13
2022-12-22T06:57:03.069Z,100369.98
2022-12-22T06:58:03.510Z,100369.92
2022-12-22T06:59:03.534Z,100369.59
2022-12-22T06:59:49.753Z,100360.50
2022-12-22T07:00:47.505Z,100361.44
2022-12-22T07:01:48.577Z,100361.44
2022-12-22T07:02:49.527Z,100361.52
2022-12-22T07:03:50.076Z,100361.00
2022-12-22T07:04:50.912Z,100360.04
2022-12-22T07:05:51.602Z,100359.61
2022-12-22T07:06:52.203Z,100359.69
2022-12-22T07:07:52.509Z,100359.19
2022-12-22T07:08:53.120Z,100359.19
2022-12-22T07:09:53.627Z,100359.19
2022-12-22T07:10:54.138Z,100358.94
2022-12-22T07:11:54.753Z,100357.58
2022-12-22T07:12:55.268Z,100356.56
2022-12-22T07:13:55.978Z,100355.14
2022-12-22T07:14:56.597Z,100354.30
2022-12-22T07:16:01.161Z,100354.12
2022-12-22T07:16:57.903Z,100353.49
2022-12-22T07:17:58.555Z,100353.02
2022-12-22T07:18:59.071Z,100352.78
2022-12-22T07:20:00.079Z,100352.70
2022-12-22T07:21:00.730Z,100351.61
2022-12-22T07:22:01.404Z,100350.92
2022-12-22T07:23:02.070Z,100349.45
2022-12-22T07:24:02.577Z,100348.44
2022-12-22T07:25:03.177Z,100348.02
2022-12-22T07:26:03.853Z,100346.92
2022-12-22T07:27:04.543Z,100346.41
2022-12-22T07:28:05.063Z,100345.70
2022-12-22T07:29:05.600Z,100345.91
2022-12-22T07:29:48.941Z,100332.82
2022-12-22T07:30:49.851Z,100333.25
2022-12-22T07:31:50.468Z,100333.84
2022-12-22T07:32:51.065Z,100333.70
2022-12-22T07:33:51.781Z,100334.47
2022-12-22T07:34:52.233Z,100336.09
2022-12-22T07:35:52.715Z,100336.30
2022-12-22T07:36:53.521Z,100337.49
2022-12-22T07:37:54.378Z,100338.55
2022-12-22T07:38:54.863Z,100339.91
2022-12-22T07:39:55.396Z,100340.72
2022-12-22T07:40:59.690Z,100342.28
2022-12-22T07:41:56.711Z,100343.98
2022-12-22T07:42:57.232Z,100345.09
2022-12-22T07:43:57.968Z,100346.31
2022-12-22T07:44:58.569Z,100347.21
2022-12-22T07:45:59.085Z,100348.70
2022-12-22T07:46:59.884Z,100350.35
2022-12-22T07:48:00.466Z,100352.98
2022-12-22T07:49:01.054Z,100354.80
2022-12-22T07:50:01.660Z,100357.05
2022-12-22T07:51:01.704Z,100359.04
2022-12-22T07:52:02.356Z,100361.33
2022-12-22T07:53:02.654Z,100364.00
2022-12-22T07:54:03.525Z,100365.91
2022-12-22T07:55:04.103Z,100368.48
2022-12-22T07:56:04.801Z,100370.65
2022-12-22T07:57:05.486Z,100373.11
2022-12-22T07:58:06.367Z,100375.52
2022-12-22T07:58:49.813Z,100412.99
2022-12-22T07:59:50.342Z,100413.50
2022-12-22T08:00:50.827Z,100412.95
2022-12-22T08:01:51.494Z,100413.63
2022-12-22T08:02:52.373Z,100414.22
2022-12-22T08:03:52.651Z,100414.52
2022-12-22T08:04:53.663Z,100415.20
2022-12-22T08:05:54.388Z,100415.93
2022-12-22T08:06:54.560Z,100417.16
2022-12-22T08:07:55.476Z,100419.28
2022-12-22T08:08:56.109Z,100420.77
2022-12-22T08:09:56.686Z,100422.84
2022-12-22T08:10:57.124Z,100424.59
2022-12-22T08:11:57.649Z,100426.66
2022-12-22T08:12:57.794Z,100428.98
2022-12-22T08:14:01.644Z,100431.41
2022-12-22T08:14:58.921Z,100433.82
2022-12-22T08:15:59.675Z,100436.58
2022-12-22T08:17:00.115Z,100440.17
2022-12-22T08:18:00.700Z,100442.84
2022-12-22T08:19:01.179Z,100446.36
2022-12-22T08:20:01.718Z,100450.79
2022-12-22T08:21:02.374Z,100454.93
2022-12-22T08:22:02.859Z,100459.08
2022-12-22T08:23:03.458Z,100462.06
2022-12-22T08:24:04.302Z,100464.44
2022-12-22T08:25:04.408Z,100467.36
2022-12-22T08:26:04.454Z,100469.94
2022-12-22T08:27:05.155Z,100473.28
2022-12-22T08:28:05.621Z,100476.37
2022-12-22T08:29:05.951Z,100480.13
2022-12-22T08:29:28.108Z,100535.84
2022-12-22T08:30:28.534Z,100535.93
2022-12-22T08:31:29.050Z,100536.52
2022-12-22T08:32:29.980Z,100535.72
2022-12-22T08:33:30.598Z,100535.47
2022-12-22T08:34:31.184Z,100535.37
2022-12-22T08:35:32.139Z,100535.63
2022-12-22T08:36:32.794Z,100535.97
2022-12-22T08:37:33.554Z,100536.80
2022-12-22T08:38:34.128Z,100537.23
2022-12-22T08:39:34.781Z,100538.25
2022-12-22T08:40:35.312Z,100539.09
2022-12-22T08:41:35.972Z,100539.77
2022-12-22T08:42:36.617Z,100540.27
2022-12-22T08:43:37.273Z,100540.44
2022-12-22T08:44:37.590Z,100540.95
2022-12-22T08:45:38.547Z,100541.70
2022-12-22T08:46:39.010Z,100542.09
2022-12-22T08:47:39.371Z,100542.59
2022-12-22T08:48:40.056Z,100543.22
2022-12-22T08:49:40.593Z,100544.11
2022-12-22T08:50:41.165Z,100545.03
2022-12-22T08:51:42.109Z,100545.83
2022-12-22T08:52:42.741Z,100546.84
2022-12-22T08:54:04.653Z,100547.39
2022-12-22T08:54:43.915Z,100548.48
2022-12-22T08:55:44.543Z,100550.09
2022-12-22T08:56:44.458Z,100551.69
2022-12-22T08:57:46.448Z,100552.66
2022-12-22T08:58:45.429Z,100553.59
2022-12-22T08:59:03.517Z,100570.34
2022-12-22T09:00:04.074Z,100570.94
2022-12-22T09:01:04.953Z,100571.27
2022-12-22T09:02:05.718Z,100571.44
2022-12-22T09:03:06.181Z,100571.90
2022-12-22T09:04:06.837Z,100572.83
2022-12-22T09:05:07.558Z,100573.52
2022-12-22T09:06:08.158Z,100574.73
2022-12-22T09:07:08.913Z,100576.27
2022-12-22T09:08:09.946Z,100578.24
2022-12-22T09:09:10.427Z,100579.94
2022-12-22T09:10:10.825Z,100581.59
2022-12-22T09:11:10.899Z,100583.98
2022-12-22T09:12:11.487Z,100586.36
2022-12-22T09:13:12.084Z,100587.75
2022-12-22T09:14:12.576Z,100589.62
2022-12-22T09:15:13.144Z,100591.73
2022-12-22T09:16:14.005Z,100593.55
2022-12-22T09:17:14.468Z,100595.48
2022-12-22T09:18:15.247Z,100597.77
2022-12-22T09:19:15.776Z,100599.92
2022-12-22T09:20:16.638Z,100602.45
2022-12-22T09:21:17.463Z,100604.73
2022-12-22T09:22:25.111Z,100606.25
2022-12-22T09:23:18.973Z,100608.20
2022-12-22T09:24:19.601Z,100609.72
2022-12-22T09:25:20.170Z,100611.58
2022-12-22T09:26:21.065Z,100612.67
2022-12-22T09:27:21.742Z,100614.45
2022-12-22T09:28:22.304Z,100616.23
2022-12-22T09:29:05.634Z,100646.22
2022-12-22T09:30:06.154Z,100646.67
2022-12-22T09:31:06.676Z,100647.06
2022-12-22T09:32:07.248Z,100647.73
2022-12-22T09:33:08.069Z,100647.47
2022-12-22T09:34:11.985Z,100647.94
2022-12-22T09:35:09.547Z,100647.59
2022-12-22T09:36:10.354Z,100647.47
2022-12-22T09:37:11.291Z,100647.51
2022-12-22T09:38:11.771Z,100647.05
2022-12-22T09:39:12.225Z,100646.19
2022-12-22T09:40:12.814Z,100645.14
2022-12-22T09:41:13.623Z,100643.92
2022-12-22T09:42:14.137Z,100642.81
2022-12-22T09:43:14.644Z,100641.33
2022-12-22T09:44:15.179Z,100639.86
2022-12-22T09:45:17.356Z,100638.16
2022-12-22T09:46:15.976Z,100636.43
2022-12-22T09:47:16.400Z,100635.12
2022-12-22T09:48:16.762Z,100633.09
2022-12-22T09:49:17.366Z,100631.53
2022-12-22T09:50:17.895Z,100630.00
2022-12-22T09:51:24.559Z,100627.77
2022-12-22T09:52:18.272Z,100626.41
2022-12-22T09:53:18.665Z,100625.44
2022-12-22T09:54:19.128Z,100624.21
2022-12-22T09:55:19.807Z,100623.28
2022-12-22T09:56:20.372Z,100622.18
2022-12-22T09:57:20.880Z,100621.63
2022-12-22T09:58:26.154Z,100620.78
2022-12-22T09:58:43.846Z,100614.71
2022-12-22T09:59:44.717Z,100614.29
2022-12-22T10:00:45.187Z,100613.78
2022-12-22T10:01:45.783Z,100613.03
2022-12-22T10:02:46.416Z,100612.94
2022-12-22T10:03:46.883Z,100612.44
2022-12-22T10:04:47.547Z,100612.52
2022-12-22T10:05:48.141Z,100612.05
2022-12-22T10:06:48.829Z,100611.89
2022-12-22T10:07:49.622Z,100612.47
2022-12-22T10:08:50.227Z,100612.64
2022-12-22T10:09:51.951Z,100613.66
2022-12-22T10:10:51.297Z,100614.16
2022-12-22T10:11:52.229Z,100615.34
2022-12-22T10:12:52.256Z,100616.11
2022-12-22T10:13:53.045Z,100617.41
2022-12-22T10:14:53.601Z,100619.19
2022-12-22T10:15:54.120Z,100621.30
2022-12-22T10:16:54.570Z,100623.11
2022-12-22T10:17:55.294Z,100625.23
2022-12-22T10:18:55.793Z,100627.47
2022-12-22T10:19:56.369Z,100629.55
2022-12-22T10:20:57.186Z,100632.80
2022-12-22T10:21:57.767Z,100635.21
2022-12-22T10:22:58.364Z,100638.13
2022-12-22T10:23:58.704Z,100641.13
2022-12-22T10:24:59.084Z,100644.05
2022-12-22T10:26:27.558Z,100646.80
2022-12-22T10:27:00.328Z,100649.89
2022-12-22T10:27:24.376Z,100698.78
2022-12-22T10:28:20.496Z,100699.04
2022-12-22T10:29:21.107Z,100699.55
2022-12-22T10:30:21.814Z,100700.14
2022-12-22T10:31:22.439Z,100701.16
2022-12-22T10:32:23.329Z,100702.00
2022-12-22T10:33:24.056Z,100703.27
2022-12-22T10:34:24.722Z,100705.03
2022-12-22T10:35:27.036Z,100707.06
2022-12-22T10:36:25.492Z,100708.92
2022-12-22T10:37:26.138Z,100711.02
2022-12-22T10:38:26.688Z,100712.94
2022-12-22T10:39:27.241Z,100715.54
2022-12-22T10:40:27.968Z,100717.36
2022-12-22T10:41:28.550Z,100719.26
2022-12-22T10:42:29.124Z,100720.52
2022-12-22T10:43:29.834Z,100722.59
2022-12-22T10:44:30.222Z,100724.66
2022-12-22T10:45:31.176Z,100726.59
2022-12-22T10:46:31.748Z,100729.13
2022-12-22T10:47:32.068Z,100731.36
2022-12-22T10:48:32.488Z,100733.85
2022-12-22T10:49:33.067Z,100736.00
2022-12-22T10:50:33.369Z,100738.41
2022-12-22T10:51:34.342Z,100740.23
2022-12-22T10:52:35.080Z,100742.00
2022-12-22T10:53:35.676Z,100744.78
2022-12-22T10:54:36.353Z,100746.81
2022-12-22T10:55:37.024Z,100748.84
2022-12-22T10:56:37.496Z,100751.63
2022-12-22T10:56:49.232Z,100796.72
2022-12-22T10:57:49.551Z,100796.72
2022-12-22T10:58:50.081Z,100796.05
2022-12-22T10:59:50.548Z,100796.30
2022-12-22T11:00:51.129Z,100796.72
2022-12-22T11:02:57.631Z,100797.28
2022-12-22T11:03:58.338Z,100798.47
2022-12-22T11:04:59.001Z,100798.97
2022-12-22T11:05:59.649Z,100800.27
2022-12-22T11:07:00.639Z,100801.29
2022-12-22T11:08:01.354Z,100802.52
2022-12-22T11:09:31.379Z,100804.54
2022-12-22T11:10:02.296Z,100805.77
2022-12-22T11:11:02.979Z,100807.83
2022-12-22T11:12:03.511Z,100810.03
2022-12-22T11:13:03.981Z,100812.43
2022-12-22T11:14:04.596Z,100814.53
2022-12-22T11:15:05.234Z,100816.95
2022-12-22T11:16:06.017Z,100819.31
2022-12-22T11:17:06.737Z,100821.51
2022-12-22T11:18:09.694Z,100823.70
2022-12-22T11:19:07.982Z,100825.98
2022-12-22T11:20:08.806Z,100827.84
2022-12-22T11:21:09.539Z,100829.78
2022-12-22T11:22:10.242Z,100831.77
2022-12-22T11:23:10.949Z,100834.04